Menard, Texas
Current Conditions -  °F | °C
As of 2:51 PM on Saturday 20 Dec 2014 (Local Time) from KJCT Reporting Station
Overcast Overcast  
Wind Chill: 53°   Ceiling: 1900
Heat Index: 53°   Visibility: 10mi
Dew Point: 45°   Wind: 7mph
Humidity: 74%   Direction: 70°ENE
Pressure: 30.11"   Gusts: NA
Location:  30.92°N, 99.79°W
Report Text: KJCT 202051Z AUTO 07006KT 10SM OVC019 12/07 A3011 RMK AO2 SLP181 T01170072 56028
Loading
Personal Weather Stations






























Interactive Weather Map New forecast layout! Learn more

10-Day Weather Forecast

Advertisements
Track Severe Weather on mobile